createdAt,value
2022-08-23T09:50:28.364Z,20.56
2022-08-23T09:53:06.626Z,20.32
2022-08-23T09:55:37.535Z,20.22
2022-08-23T09:58:17.391Z,20.33
2022-08-23T10:00:45.143Z,19.97
2022-08-23T10:03:27.242Z,19.80
2022-08-23T10:06:00.836Z,20.24
2022-08-23T10:08:31.838Z,20.00
2022-08-23T10:11:19.416Z,19.93
2022-08-23T10:13:48.091Z,19.88
2022-08-23T10:16:50.222Z,19.78
2022-08-23T10:19:24.440Z,19.76
2022-08-23T10:22:03.978Z,19.87
2022-08-23T10:24:46.128Z,19.87
2022-08-23T10:27:37.547Z,19.78
2022-08-23T10:30:32.645Z,19.89
2022-08-23T10:33:25.361Z,19.94
2022-08-23T10:36:10.509Z,19.71
2022-08-23T10:38:45.216Z,19.80
2022-08-23T10:41:34.444Z,19.78
2022-08-23T10:44:33.781Z,20.17
2022-08-23T10:47:27.612Z,20.32
2022-08-23T10:49:56.043Z,20.34
2022-08-23T10:53:04.506Z,20.62
2022-08-23T10:55:54.832Z,20.91
2022-08-23T10:58:25.932Z,21.00
2022-08-23T11:00:57.996Z,21.39
2022-08-23T11:03:42.547Z,21.45
2022-08-23T11:06:24.959Z,21.44
2022-08-23T11:09:00.369Z,21.60
2022-08-23T11:11:58.059Z,21.52
2022-08-23T11:14:31.126Z,21.63
2022-08-23T11:17:05.771Z,21.89
2022-08-23T11:19:58.651Z,22.00
2022-08-23T11:22:25.661Z,21.74
2022-08-23T11:25:05.251Z,21.99
2022-08-23T11:27:52.797Z,21.73
2022-08-23T11:30:34.803Z,21.69
2022-08-23T11:33:25.320Z,21.95
2022-08-23T11:36:16.542Z,21.62
2022-08-23T11:38:49.597Z,21.59
2022-08-23T11:41:19.274Z,21.85
2022-08-23T11:44:13.532Z,22.28
2022-08-23T11:46:53.872Z,22.17
2022-08-23T11:49:30.526Z,21.90
2022-08-23T11:52:15.840Z,22.08
2022-08-23T11:55:00.943Z,22.43
2022-08-23T11:58:05.806Z,22.26
2022-08-23T12:01:06.511Z,22.64
2022-08-23T12:03:52.681Z,22.44
2022-08-23T12:06:19.619Z,22.47
2022-08-23T12:08:55.781Z,22.39
2022-08-23T12:11:25.848Z,22.61
2022-08-23T12:14:20.671Z,22.23
2022-08-23T12:16:50.090Z,22.30
2022-08-23T12:19:40.326Z,22.24
2022-08-23T12:22:24.287Z,22.16
2022-08-23T12:24:54.991Z,22.49
2022-08-23T12:27:43.951Z,22.52
2022-08-23T12:30:18.099Z,22.76
2022-08-23T12:33:10.703Z,22.47
2022-08-23T12:35:51.024Z,22.30
2022-08-23T12:38:33.957Z,22.52
2022-08-23T12:41:17.873Z,22.77
2022-08-23T12:44:03.613Z,22.77
2022-08-23T12:46:42.513Z,22.24
2022-08-23T12:49:22.855Z,22.62
2022-08-23T12:51:52.874Z,22.55
2022-08-23T12:54:32.957Z,22.42
2022-08-23T12:57:01.363Z,22.52
2022-08-23T12:59:41.674Z,22.89
2022-08-23T13:02:15.353Z,23.01
2022-08-23T13:04:43.756Z,22.52
2022-08-23T13:07:19.774Z,22.89
2022-08-23T13:09:53.223Z,23.20
2022-08-23T13:12:21.340Z,23.57
2022-08-23T13:14:51.322Z,23.57
2022-08-23T13:17:27.266Z,23.59
2022-08-23T13:20:17.015Z,23.78
2022-08-23T13:23:09.452Z,24.05
2022-08-23T13:25:42.059Z,23.87
2022-08-23T13:28:24.553Z,24.12
2022-08-23T13:31:06.404Z,23.96
2022-08-23T13:33:33.639Z,23.99
2022-08-23T13:36:13.703Z,24.47
2022-08-23T13:38:42.077Z,24.61
2022-08-23T13:41:13.923Z,24.48
2022-08-23T13:43:48.364Z,25.06
2022-08-23T13:46:23.192Z,24.56
2022-08-23T13:49:24.510Z,25.24
2022-08-23T13:52:37.592Z,24.17
2022-08-23T13:54:50.955Z,24.30
2022-08-23T13:57:21.620Z,24.76
2022-08-23T13:59:53.194Z,24.39
2022-08-23T14:02:22.372Z,24.86
2022-08-23T14:04:49.904Z,24.68
2022-08-23T14:07:17.085Z,24.17
2022-08-23T14:09:44.104Z,23.86
2022-08-23T14:12:31.897Z,23.66
2022-08-23T14:15:01.101Z,23.95
2022-08-23T14:17:28.871Z,23.25
2022-08-23T14:20:33.040Z,23.57
2022-08-23T14:22:43.787Z,23.30
2022-08-23T14:25:12.644Z,23.43
2022-08-23T14:27:42.102Z,23.03
2022-08-23T14:30:25.152Z,22.82
2022-08-23T14:32:57.381Z,22.95
2022-08-23T14:35:24.423Z,23.02
2022-08-23T14:38:06.561Z,22.83
2022-08-23T14:40:36.030Z,22.64
2022-08-23T14:43:05.330Z,22.67
2022-08-23T14:45:32.963Z,22.82
2022-08-23T14:48:00.039Z,23.07
2022-08-23T14:50:28.247Z,22.98
2022-08-23T14:52:56.221Z,23.14
2022-08-23T14:55:25.021Z,23.30
2022-08-23T14:57:52.723Z,23.52
2022-08-23T15:00:19.751Z,23.41
2022-08-23T15:02:47.639Z,23.44
2022-08-23T15:05:15.210Z,23.62
2022-08-23T15:07:42.474Z,23.42
2022-08-23T15:10:11.781Z,23.06
2022-08-23T15:13:12.830Z,22.78
2022-08-23T15:15:42.941Z,23.14
2022-08-23T15:18:09.975Z,23.02
2022-08-23T15:20:38.409Z,23.27
2022-08-23T15:23:06.781Z,23.13
2022-08-23T15:25:36.101Z,22.82
2022-08-23T15:28:03.688Z,23.07
2022-08-23T15:30:33.515Z,22.79
2022-08-23T15:33:01.024Z,22.95
2022-08-23T15:35:29.158Z,22.83
2022-08-23T15:37:57.322Z,22.68
2022-08-23T15:51:31.213Z,22.96
2022-08-23T15:53:58.307Z,22.96
2022-08-23T15:56:34.072Z,22.51
2022-08-23T15:59:01.447Z,22.13
2022-08-23T16:01:33.612Z,22.17
2022-08-23T16:04:02.072Z,22.16
2022-08-23T16:06:32.201Z,22.33
2022-08-23T16:09:02.026Z,22.33
2022-08-23T16:11:28.983Z,22.05
2022-08-23T16:13:55.937Z,22.17
2022-08-23T16:16:33.505Z,22.14
2022-08-23T16:19:01.364Z,22.04
2022-08-23T16:21:30.675Z,21.92
2022-08-23T16:23:58.746Z,21.84
2022-08-23T16:26:34.775Z,21.83
2022-08-23T16:29:04.978Z,21.95
2022-08-23T16:31:38.769Z,21.58
2022-08-23T16:34:11.650Z,21.62
2022-08-23T16:36:44.487Z,21.44
2022-08-23T16:39:13.623Z,21.28
2022-08-23T16:41:40.754Z,21.42
2022-08-23T16:44:07.996Z,21.43
2022-08-23T16:46:35.854Z,21.33
2022-08-23T16:49:02.999Z,21.32
2022-08-23T16:51:29.885Z,21.21
2022-08-23T16:54:02.595Z,21.17
2022-08-23T16:56:34.252Z,21.17
2022-08-23T16:59:02.498Z,21.04
2022-08-23T17:01:33.167Z,20.91
2022-08-23T17:04:00.153Z,20.79
2022-08-23T17:06:27.375Z,20.70
2022-08-23T17:08:54.268Z,20.74
2022-08-23T17:11:21.268Z,20.71
2022-08-23T17:13:48.115Z,20.49
2022-08-23T17:16:15.497Z,20.60
2022-08-23T17:18:42.506Z,20.55
2022-08-23T17:21:09.389Z,20.54
2022-08-23T17:23:39.282Z,20.48
2022-08-23T17:26:09.605Z,20.51
2022-08-23T17:28:36.777Z,20.24
2022-08-23T17:31:04.118Z,20.34
2022-08-23T17:33:31.059Z,20.31
2022-08-23T17:35:58.292Z,20.20
2022-08-23T17:38:25.141Z,20.19
2022-08-23T17:40:52.901Z,20.21
2022-08-23T17:43:19.821Z,20.10
2022-08-23T17:45:50.045Z,20.06
2022-08-23T17:48:18.760Z,20.00
2022-08-23T17:50:46.613Z,19.96
2022-08-23T17:53:18.492Z,19.89
2022-08-23T17:55:45.799Z,19.76
2022-08-23T17:58:14.379Z,19.86
2022-08-23T18:00:41.505Z,19.89
2022-08-23T18:03:08.619Z,19.71
2022-08-23T18:05:40.048Z,19.59
2022-08-23T18:08:08.317Z,19.58
2022-08-23T18:10:36.068Z,19.55
2022-08-23T18:13:03.579Z,19.60
2022-08-23T18:15:31.388Z,19.51
2022-08-23T18:18:00.186Z,19.55
2022-08-23T18:20:28.386Z,19.40
2022-08-23T18:22:57.604Z,19.20
2022-08-23T18:25:25.808Z,19.26
2022-08-23T18:28:08.665Z,18.88
2022-08-23T18:30:39.049Z,18.99
2022-08-23T18:33:07.048Z,19.08
2022-08-23T18:35:34.650Z,19.17
2022-08-23T18:38:02.224Z,19.13
2022-08-23T18:40:29.728Z,18.86
2022-08-23T18:42:57.399Z,18.58
2022-08-23T18:45:24.831Z,18.66
2022-08-23T18:47:52.514Z,18.58
2022-08-23T18:50:19.721Z,18.71
2022-08-23T18:52:46.680Z,18.76
2022-08-23T18:55:14.971Z,18.75
2022-08-23T18:57:43.168Z,18.83
2022-08-23T19:00:11.350Z,18.72
2022-08-23T19:02:38.208Z,18.73
2022-08-23T19:05:07.943Z,18.62
2022-08-23T19:07:35.219Z,18.58
2022-08-23T19:10:02.601Z,18.49
2022-08-23T19:12:29.637Z,18.62
2022-08-23T19:14:56.588Z,18.82
2022-08-23T19:17:23.750Z,18.39
2022-08-23T19:19:50.769Z,18.57
2022-08-23T19:22:17.805Z,18.33
2022-08-23T19:24:44.827Z,18.16
2022-08-23T19:27:12.370Z,18.11
2022-08-23T19:29:39.336Z,18.25
2022-08-23T19:32:06.442Z,18.09
2022-08-23T19:34:33.619Z,18.17
2022-08-23T19:37:01.623Z,18.14
2022-08-23T19:39:29.411Z,18.18
2022-08-23T19:41:56.506Z,17.98
2022-08-23T19:44:23.688Z,18.00
2022-08-23T19:46:50.589Z,18.10
2022-08-23T19:49:17.509Z,17.95
2022-08-23T19:51:44.647Z,17.68
2022-08-23T19:54:13.706Z,17.62
2022-08-23T19:56:52.743Z,17.76
2022-08-23T19:59:23.310Z,17.75
2022-08-23T20:01:52.372Z,17.63
2022-08-23T20:04:21.139Z,17.56
2022-08-23T20:06:48.857Z,17.53
2022-08-23T20:09:16.062Z,17.59
2022-08-23T20:11:43.709Z,17.58
2022-08-23T20:14:11.700Z,17.68
2022-08-23T20:16:41.015Z,17.54
2022-08-23T20:19:09.544Z,17.53
2022-08-23T20:21:36.909Z,17.56
2022-08-23T20:24:04.506Z,17.50
2022-08-23T20:26:46.675Z,17.56
2022-08-23T20:29:22.019Z,17.50
2022-08-23T20:31:56.466Z,17.68
2022-08-23T20:34:26.536Z,17.67
2022-08-23T20:36:56.252Z,17.72
2022-08-23T20:39:24.890Z,17.67
2022-08-23T20:41:53.027Z,17.67
2022-08-23T20:44:21.508Z,17.74
2022-08-23T20:46:53.726Z,17.86
2022-08-23T20:49:22.692Z,17.71
2022-08-23T20:51:50.409Z,17.82
2022-08-23T20:54:17.706Z,17.73
2022-08-23T20:56:44.672Z,17.75
2022-08-23T20:59:13.123Z,17.88
2022-08-23T21:01:40.315Z,17.68
2022-08-23T21:04:07.283Z,17.72
2022-08-23T21:06:45.220Z,17.83
2022-08-23T21:09:17.147Z,17.84
2022-08-23T21:11:45.218Z,17.82
2022-08-23T21:14:15.184Z,17.72
2022-08-23T21:16:42.242Z,17.69
2022-08-23T21:19:09.772Z,17.79
2022-08-23T21:21:38.410Z,17.65
2022-08-23T21:24:07.957Z,17.66
2022-08-23T21:26:35.686Z,17.71
2022-08-23T21:29:02.984Z,17.79
2022-08-23T21:31:31.493Z,17.71
2022-08-23T21:34:00.327Z,17.66
2022-08-23T21:36:27.924Z,17.68
2022-08-23T21:38:54.847Z,17.48
2022-08-23T21:41:44.446Z,17.56
2022-08-23T21:44:14.544Z,17.31
2022-08-23T21:46:42.221Z,17.52
2022-08-23T21:49:12.441Z,17.41
2022-08-23T21:51:41.294Z,17.51
2022-08-23T21:54:09.497Z,17.65
2022-08-23T21:56:37.731Z,17.30
2022-08-23T21:59:07.336Z,17.37
2022-08-23T22:01:36.435Z,17.34
2022-08-23T22:04:06.349Z,17.18
2022-08-23T22:06:35.048Z,17.24
2022-08-23T22:09:03.257Z,17.19
2022-08-23T22:11:30.270Z,17.29
2022-08-23T22:13:57.140Z,17.35
2022-08-23T22:16:24.487Z,17.30
2022-08-23T22:18:51.398Z,17.30
2022-08-23T22:21:18.246Z,17.39
2022-08-23T22:23:45.141Z,17.36
2022-08-23T22:26:13.962Z,17.35
2022-08-23T22:28:44.783Z,17.42
2022-08-23T22:31:14.620Z,17.46
2022-08-23T22:33:43.387Z,17.44
2022-08-23T22:36:16.612Z,17.62
2022-08-23T22:38:44.793Z,17.52
2022-08-23T22:41:21.008Z,17.62
2022-08-23T22:43:47.925Z,17.48
2022-08-23T22:46:15.043Z,17.54
2022-08-23T22:48:42.545Z,17.52
2022-08-23T22:51:15.270Z,17.54
2022-08-23T22:53:45.808Z,17.57
2022-08-23T22:56:15.897Z,17.59
2022-08-23T22:58:43.899Z,17.49
2022-08-23T23:01:19.295Z,17.52
2022-08-23T23:03:49.148Z,17.56
2022-08-23T23:06:18.605Z,17.47
2022-08-23T23:08:45.629Z,17.43
2022-08-23T23:11:14.568Z,17.45
2022-08-23T23:13:41.530Z,17.46
2022-08-23T23:16:13.538Z,17.42
2022-08-23T23:18:42.519Z,17.48
2022-08-23T23:21:09.846Z,17.45
2022-08-23T23:23:37.471Z,17.37
2022-08-23T23:26:08.145Z,17.41
2022-08-23T23:28:35.155Z,17.41
2022-08-23T23:31:03.486Z,17.43
2022-08-23T23:33:30.489Z,17.48
2022-08-23T23:35:57.317Z,17.42
2022-08-23T23:38:24.287Z,17.55
2022-08-23T23:40:52.088Z,17.44
2022-08-23T23:43:18.984Z,17.46
2022-08-23T23:45:46.117Z,17.41
2022-08-23T23:48:13.038Z,17.44
2022-08-23T23:50:45.499Z,17.54
2022-08-23T23:53:15.646Z,17.43
2022-08-23T23:55:43.068Z,17.48
2022-08-23T23:58:10.584Z,17.37
